Clearwater, Minnesota
Current Conditions -  °F | °C
As of 8:53 PM on Monday 22 Dec 2014 (Local Time) from KSTC Reporting Station
Light Rain Light Rain  
Wind Chill: 31°   Ceiling: 600
Heat Index: 37°   Visibility: 3mi
Dew Point: 33°   Wind: 8mph
Humidity: 86%   Direction: 80°E
Pressure: 29.63"   Gusts: NA
Location:  45.42°N, 94.05°W
Report Text: KSTC 230253Z 08007KT 3SM -RA BR OVC006 03/01 A2963 RMK AO2 RAB0157 SLP049 P0001 60001 T00280006 51008
Loading
Personal Weather Stations






























Interactive Weather Map New forecast layout! Learn more

10-Day Weather Forecast

Advertisements
Track Severe Weather on mobile